Time;durP1;ratioP1;P1;durP2;ratioP2;P2;SDS_P1;SDS_P2;PMS_P1;PMS_P2;Temp;Humidity;BMP_temperature;BMP_pressure;BME280_temperature;BME280_humidity;BME280_pressure;Samples;Min_cycle;Max_cycle;Signal;HPM_P1;HPM_P2
2022/06/27 00:00:09;;;;;;;4.20;3.80;;;;;;;;;;4969179;28;20196;-75
2022/06/27 00:02:39;;;;;;;8.20;3.97;;;;;;;;;;4962183;28;20189;-75
2022/06/27 00:05:05;;;;;;;10.47;3.80;;;;;;;;;;4969635;28;20194;-75
2022/06/27 00:07:31;;;;;;;10.07;4.00;;;;;;;;;;4966959;28;20271;-75
2022/06/27 00:09:58;;;;;;;4.07;3.40;;;;;;;;;;4968494;28;20204;-75
2022/06/27 00:12:24;;;;;;;3.87;3.10;;;;;;;;;;4964488;28;20307;-75
2022/06/27 00:14:50;;;;;;;3.93;3.03;;;;;;;;;;4968614;28;20267;-75
2022/06/27 00:17:16;;;;;;;4.80;3.33;;;;;;;;;;4963121;28;20644;-75
2022/06/27 00:19:42;;;;;;;6.10;3.57;;;;;;;;;;4964665;28;20180;-75
2022/06/27 00:22:09;;;;;;;6.53;4.17;;;;;;;;;;4962926;28;20251;-75
2022/06/27 00:24:35;;;;;;;16.23;5.20;;;;;;;;;;4963919;28;20212;-75
2022/06/27 00:27:02;;;;;;;9.00;4.80;;;;;;;;;;4956646;28;20893;-75
2022/06/27 00:29:28;;;;;;;6.03;4.37;;;;;;;;;;4951213;28;20211;-75
2022/06/27 00:31:54;;;;;;;6.43;4.40;;;;;;;;;;4948856;28;20617;-75
2022/06/27 00:34:21;;;;;;;4.97;3.97;;;;;;;;;;4954179;28;20543;-75
2022/06/27 00:36:48;;;;;;;5.63;3.60;;;;;;;;;;4945874;28;20184;-75
2022/06/27 00:39:14;;;;;;;5.77;3.70;;;;;;;;;;4944268;28;20193;-75
2022/06/27 00:41:40;;;;;;;5.73;3.80;;;;;;;;;;4947659;28;20282;-75
2022/06/27 00:44:06;;;;;;;5.17;4.60;;;;;;;;;;4967030;28;20243;-75
2022/06/27 00:46:33;;;;;;;4.60;3.70;;;;;;;;;;4970648;28;20192;-75
2022/06/27 00:48:59;;;;;;;4.93;4.10;;;;;;;;;;4969706;28;20208;-75
2022/06/27 00:51:25;;;;;;;3.73;3.20;;;;;;;;;;4966458;28;20204;-75
2022/06/27 00:53:53;;;;;;;3.37;2.50;;;;;;;;;;4966992;28;20215;-75
2022/06/27 00:56:19;;;;;;;3.60;2.63;;;;;;;;;;4957631;28;20528;-75
2022/06/27 00:58:45;;;;;;;3.33;2.60;;;;;;;;;;4970888;28;20271;-75
2022/06/27 01:01:12;;;;;;;3.80;2.60;;;;;;;;;;4960562;28;20422;-75
2022/06/27 01:03:38;;;;;;;2.70;2.30;;;;;;;;;;4966595;28;20192;-75
2022/06/27 01:06:04;;;;;;;3.77;2.40;;;;;;;;;;4965582;28;20193;-75
2022/06/27 01:08:31;;;;;;;4.68;2.67;;;;;;;;;;4963579;28;20434;-75
2022/06/27 01:10:57;;;;;;;3.17;2.30;;;;;;;;;;4965123;28;20227;-75
2022/06/27 01:13:23;;;;;;;3.87;2.30;;;;;;;;;;4967343;28;20204;-75
2022/06/27 01:15:50;;;;;;;2.57;2.10;;;;;;;;;;4969991;28;20192;-75
2022/06/27 01:18:16;;;;;;;2.90;2.60;;;;;;;;;;4966107;28;20235;-75
2022/06/27 01:20:43;;;;;;;3.03;2.67;;;;;;;;;;4967728;28;20269;-75
2022/06/27 01:23:10;;;;;;;4.20;2.97;;;;;;;;;;4964032;28;20197;-75
2022/06/27 01:25:36;;;;;;;5.07;2.80;;;;;;;;;;4966856;28;20326;-75
2022/06/27 01:28:03;;;;;;;4.93;3.37;;;;;;;;;;4953831;28;20208;-75
2022/06/27 01:30:29;;;;;;;5.27;3.00;;;;;;;;;;4944515;28;20208;-75
2022/06/27 01:32:56;;;;;;;5.80;3.97;;;;;;;;;;4948414;28;20254;-75
2022/06/27 01:35:23;;;;;;;4.77;4.20;;;;;;;;;;4962770;28;20660;-75
2022/06/27 01:37:49;;;;;;;4.80;4.40;;;;;;;;;;4948934;28;20544;-75
2022/06/27 01:40:16;;;;;;;4.70;4.30;;;;;;;;;;4966133;28;20222;-75
2022/06/27 01:42:43;;;;;;;4.87;4.47;;;;;;;;;;4965705;28;20195;-75
2022/06/27 01:45:11;;;;;;;4.50;4.10;;;;;;;;;;4948343;28;20212;-75
2022/06/27 01:47:38;;;;;;;5.33;4.83;;;;;;;;;;4957521;28;20292;-75
2022/06/27 01:50:08;;;;;;;6.27;5.27;;;;;;;;;;4951409;28;20276;-75
2022/06/27 01:52:41;;;;;;;5.93;5.37;;;;;;;;;;4932041;28;20212;-75
2022/06/27 01:55:07;;;;;;;5.80;5.30;;;;;;;;;;4968281;28;20185;-75
2022/06/27 01:57:36;;;;;;;5.40;4.90;;;;;;;;;;4948299;28;20192;-75
2022/06/27 02:00:05;;;;;;;5.87;5.37;;;;;;;;;;4928633;28;20232;-75
2022/06/27 02:02:42;;;;;;;6.23;5.63;;;;;;;;;;4947155;28;20192;-75
2022/06/27 02:05:09;;;;;;;6.07;5.47;;;;;;;;;;4946254;28;20831;-75
2022/06/27 02:07:38;;;;;;;6.60;6.00;;;;;;;;;;4969134;28;20195;-75
2022/06/27 02:10:08;;;;;;;6.00;5.20;;;;;;;;;;4962965;28;20283;-75
2022/06/27 02:12:35;;;;;;;5.57;5.17;;;;;;;;;;4965355;28;20629;-75
2022/06/27 02:15:01;;;;;;;5.60;5.20;;;;;;;;;;4947958;28;20192;-75
2022/06/27 02:17:34;;;;;;;5.87;5.30;;;;;;;;;;4964712;28;20207;-75
2022/06/27 02:20:01;;;;;;;5.53;5.03;;;;;;;;;;4933373;28;20576;-74
2022/06/27 02:22:29;;;;;;;5.73;5.23;;;;;;;;;;4952489;28;20585;-75
2022/06/27 02:24:55;;;;;;;8.27;5.30;;;;;;;;;;4949441;28;20223;-75
2022/06/27 02:27:21;;;;;;;6.10;5.60;;;;;;;;;;4950188;28;20258;-75
2022/06/27 02:29:47;;;;;;;6.10;5.60;;;;;;;;;;4948703;28;20243;-75
2022/06/27 02:32:14;;;;;;;5.67;5.20;;;;;;;;;;4964138;28;20267;-75
2022/06/27 02:34:40;;;;;;;5.70;5.20;;;;;;;;;;4966560;28;20197;-75
2022/06/27 02:37:07;;;;;;;5.93;5.50;;;;;;;;;;4966045;28;20185;-76
2022/06/27 02:39:35;;;;;;;5.63;5.03;;;;;;;;;;4965034;28;20279;-75
2022/06/27 02:42:02;;;;;;;5.83;5.33;;;;;;;;;;4962444;28;20270;-75
2022/06/27 02:44:29;;;;;;;5.90;5.43;;;;;;;;;;4968786;28;20679;-75
2022/06/27 02:46:58;;;;;;;7.70;5.77;;;;;;;;;;4966621;28;20287;-75
2022/06/27 02:49:24;;;;;;;9.60;6.70;;;;;;;;;;4967967;28;20192;-75
2022/06/27 02:52:01;;;;;;;6.70;6.10;;;;;;;;;;4969094;28;20189;-75
2022/06/27 02:54:41;;;;;;;6.37;5.87;;;;;;;;;;4966488;28;20200;-75
2022/06/27 02:57:22;;;;;;;6.47;5.87;;;;;;;;;;4954578;28;20184;-75
2022/06/27 02:59:49;;;;;;;6.47;5.97;;;;;;;;;;4968540;28;20566;-75
2022/06/27 03:02:16;;;;;;;6.93;6.37;;;;;;;;;;4966969;28;20224;-75
2022/06/27 03:05:01;;;;;;;6.67;6.17;;;;;;;;;;4968476;28;20255;-76
2022/06/27 03:07:37;;;;;;;6.87;6.27;;;;;;;;;;4968090;28;20195;-75
2022/06/27 03:10:03;;;;;;;6.43;5.90;;;;;;;;;;4952238;28;20242;-75
2022/06/27 03:12:32;;;;;;;5.97;5.47;;;;;;;;;;4968610;28;20212;-75
2022/06/27 03:14:58;;;;;;;6.07;5.67;;;;;;;;;;4939683;28;20624;-75
2022/06/27 03:17:24;;;;;;;5.70;5.23;;;;;;;;;;4950681;28;20177;-75
2022/06/27 03:20:09;;;;;;;5.63;5.20;;;;;;;;;;4968027;28;20200;-75
2022/06/27 03:22:48;;;;;;;5.90;5.40;;;;;;;;;;4950208;28;20219;-75
2022/06/27 03:25:14;;;;;;;5.40;5.00;;;;;;;;;;4965723;28;20225;-75
2022/06/27 03:27:44;;;;;;;7.63;5.43;;;;;;;;;;4945659;28;20692;-75
2022/06/27 03:30:11;;;;;;;4.80;4.40;;;;;;;;;;4963082;28;20619;-75
2022/06/27 03:32:37;;;;;;;5.40;4.90;;;;;;;;;;4948706;28;20212;-75
2022/06/27 03:35:08;;;;;;;5.63;5.03;;;;;;;;;;4946064;28;20239;-75
2022/06/27 03:37:35;;;;;;;5.60;5.20;;;;;;;;;;4963491;28;20192;-75
2022/06/27 03:40:02;;;;;;;6.73;6.00;;;;;;;;;;4946035;28;20231;-75
2022/06/27 03:42:31;;;;;;;6.60;5.97;;;;;;;;;;4964448;28;20210;-75
2022/06/27 03:44:57;;;;;;;8.27;5.90;;;;;;;;;;4948612;28;20195;-76
2022/06/27 03:47:25;;;;;;;5.67;5.17;;;;;;;;;;4962521;28;20192;-75
2022/06/27 03:50:09;;;;;;;5.93;5.40;;;;;;;;;;4968125;28;20208;-75
2022/06/27 03:52:37;;;;;;;6.60;5.40;;;;;;;;;;4962816;28;20364;-75
2022/06/27 03:55:03;;;;;;;7.10;5.13;;;;;;;;;;4962502;28;20185;-75
2022/06/27 03:57:30;;;;;;;7.23;5.27;;;;;;;;;;4960285;28;20617;-75
2022/06/27 03:59:57;;;;;;;5.43;4.93;;;;;;;;;;4964753;28;20871;-75
2022/06/27 04:02:26;;;;;;;5.73;5.10;;;;;;;;;;4972131;28;20197;-75
2022/06/27 04:05:15;;;;;;;4.97;4.47;;;;;;;;;;4969638;28;20268;-75
2022/06/27 04:07:42;;;;;;;6.03;5.10;;;;;;;;;;4974833;28;20212;-75
2022/06/27 04:10:10;;;;;;;8.87;5.23;;;;;;;;;;4967798;28;20702;-75
2022/06/27 04:12:36;;;;;;;5.77;5.20;;;;;;;;;;4954924;28;20612;-75
2022/06/27 04:15:21;;;;;;;6.13;5.53;;;;;;;;;;4968839;28;20187;-75
2022/06/27 04:18:13;;;;;;;7.50;5.80;;;;;;;;;;4966927;28;20624;-75
2022/06/27 04:21:05;;;;;;;7.20;5.67;;;;;;;;;;4969690;28;20576;-75
2022/06/27 04:23:43;;;;;;;6.13;5.53;;;;;;;;;;4953728;28;20660;-75
2022/06/27 04:26:39;;;;;;;6.17;5.30;;;;;;;;;;4947354;28;20281;-75
2022/06/27 04:29:05;;;;;;;6.20;4.87;;;;;;;;;;4967933;28;20298;-75
2022/06/27 04:31:31;;;;;;;6.77;5.00;;;;;;;;;;4949309;28;20213;-75
2022/06/27 04:33:58;;;;;;;5.50;5.00;;;;;;;;;;4970859;28;20208;-75
2022/06/27 04:36:25;;;;;;;6.63;4.37;;;;;;;;;;4950480;28;20570;-75
2022/06/27 04:38:53;;;;;;;5.00;4.60;;;;;;;;;;4951596;28;20899;-75
2022/06/27 04:41:50;;;;;;;4.20;3.80;;;;;;;;;;4937810;28;20209;-75
2022/06/27 04:44:18;;;;;;;4.33;4.03;;;;;;;;;;4966380;28;20239;-75
2022/06/27 04:46:48;;;;;;;4.63;4.10;;;;;;;;;;4972343;28;20184;-75
2022/06/27 04:49:42;;;;;;;4.87;4.37;;;;;;;;;;4956363;28;20184;-75
2022/06/27 04:52:08;;;;;;;5.80;4.40;;;;;;;;;;4966866;28;20208;-75
2022/06/27 04:54:36;;;;;;;4.93;4.30;;;;;;;;;;4955055;28;20196;-75
2022/06/27 04:57:03;;;;;;;5.97;5.07;;;;;;;;;;4958230;28;20283;-75
2022/06/27 04:59:32;;;;;;;4.77;4.20;;;;;;;;;;4954669;28;20192;-75
2022/06/27 05:02:09;;;;;;;7.40;4.10;;;;;;;;;;4956349;28;20195;-75
2022/06/27 05:04:36;;;;;;;6.13;5.30;;;;;;;;;;4958019;28;20649;-75
2022/06/27 05:07:03;;;;;;;5.73;5.07;;;;;;;;;;4938439;28;20251;-75
2022/06/27 05:09:29;;;;;;;6.17;4.63;;;;;;;;;;4966868;28;20184;-75
2022/06/27 05:11:56;;;;;;;6.07;5.47;;;;;;;;;;4951641;28;20200;-75
2022/06/27 05:14:24;;;;;;;6.50;5.10;;;;;;;;;;4962092;28;20176;-75
2022/06/27 05:16:53;;;;;;;6.50;5.90;;;;;;;;;;4952842;28;20188;-75
2022/06/27 05:19:23;;;;;;;8.50;6.03;;;;;;;;;;4964883;28;20185;-75
2022/06/27 05:21:50;;;;;;;6.07;5.47;;;;;;;;;;4962226;28;20196;-75
2022/06/27 05:24:18;;;;;;;7.83;7.13;;;;;;;;;;4949198;28;20208;-75
2022/06/27 05:26:46;;;;;;;8.80;7.80;;;;;;;;;;4941932;28;20188;-75
2022/06/27 05:29:12;;;;;;;9.57;8.57;;;;;;;;;;4969455;28;20212;-75
2022/06/27 05:31:39;;;;;;;9.80;8.97;;;;;;;;;;4975725;28;20204;-75
2022/06/27 05:34:05;;;;;;;10.10;9.10;;;;;;;;;;4972866;28;20753;-75
2022/06/27 05:36:31;;;;;;;9.37;8.47;;;;;;;;;;4968521;28;20181;-75
2022/06/27 05:38:58;;;;;;;11.37;8.83;;;;;;;;;;4955539;28;20185;-75
2022/06/27 05:41:24;;;;;;;10.53;9.27;;;;;;;;;;4979899;28;20193;-75
2022/06/27 05:43:56;;;;;;;10.53;9.63;;;;;;;;;;4953274;28;20730;-75
2022/06/27 05:46:23;;;;;;;12.40;11.23;;;;;;;;;;4988987;28;20189;-73
2022/06/27 05:49:13;;;;;;;10.97;9.97;;;;;;;;;;4953975;28;20211;-72
2022/06/27 05:51:47;;;;;;;9.90;7.83;;;;;;;;;;4970679;28;20235;-75
2022/06/27 05:54:14;;;;;;;8.80;8.00;;;;;;;;;;4980290;28;20707;-74
2022/06/27 05:56:40;;;;;;;8.70;7.90;;;;;;;;;;4973719;28;20703;-72
2022/06/27 05:59:07;;;;;;;9.40;8.50;;;;;;;;;;4972978;28;20256;-75
2022/06/27 06:01:37;;;;;;;9.67;8.73;;;;;;;;;;4972070;28;20209;-75
2022/06/27 06:04:08;;;;;;;11.23;8.63;;;;;;;;;;4956311;28;20181;-75
2022/06/27 06:06:37;;;;;;;8.93;8.13;;;;;;;;;;4955217;28;20187;-75
2022/06/27 06:09:05;;;;;;;9.47;8.60;;;;;;;;;;4968279;28;20308;-75
2022/06/27 06:11:33;;;;;;;10.40;9.27;;;;;;;;;;4960380;28;20216;-76
2022/06/27 06:13:59;;;;;;;8.30;7.50;;;;;;;;;;4965771;28;20204;-75
2022/06/27 06:16:26;;;;;;;8.90;8.00;;;;;;;;;;4981016;28;20196;-76
2022/06/27 06:18:52;;;;;;;7.87;7.17;;;;;;;;;;4973423;28;20195;-75
2022/06/27 06:21:22;;;;;;;7.77;7.07;;;;;;;;;;4966070;28;20287;-75
2022/06/27 06:23:51;;;;;;;8.33;6.60;;;;;;;;;;4944979;28;20241;-75
2022/06/27 06:26:17;;;;;;;7.77;6.87;;;;;;;;;;4969957;28;20711;-75
2022/06/27 06:28:44;;;;;;;6.67;6.03;;;;;;;;;;4971356;28;20679;-74
2022/06/27 06:31:14;;;;;;;7.10;6.50;;;;;;;;;;4956241;28;20262;-75
2022/06/27 06:33:42;;;;;;;8.13;7.37;;;;;;;;;;4956434;28;20287;-75
2022/06/27 06:36:09;;;;;;;7.57;6.87;;;;;;;;;;4944838;28;20702;-74
2022/06/27 06:38:36;;;;;;;8.97;6.83;;;;;;;;;;4971646;28;20189;-75
2022/06/27 06:41:02;;;;;;;6.83;6.23;;;;;;;;;;4968529;28;20197;-74
2022/06/27 06:43:28;;;;;;;6.60;6.00;;;;;;;;;;4979968;28;20630;-74
2022/06/27 06:46:27;;;;;;;7.53;6.07;;;;;;;;;;4950256;28;20215;-74
2022/06/27 06:49:06;;;;;;;7.07;6.37;;;;;;;;;;4936928;28;20284;-74
2022/06/27 06:51:37;;;;;;;6.17;5.57;;;;;;;;;;4973641;28;20255;-74
2022/06/27 06:54:04;;;;;;;6.97;5.87;;;;;;;;;;4976249;28;20702;-74
2022/06/27 06:56:31;;;;;;;7.60;6.17;;;;;;;;;;4972801;28;20243;-74
2022/06/27 06:58:58;;;;;;;5.60;5.10;;;;;;;;;;4956273;28;20188;-75
2022/06/27 07:01:26;;;;;;;6.37;4.80;;;;;;;;;;4976209;28;20197;-75
2022/06/27 07:03:53;;;;;;;5.60;5.10;;;;;;;;;;4973351;28;20660;-74
2022/06/27 07:06:24;;;;;;;5.53;4.97;;;;;;;;;;4963955;28;20177;-75
2022/06/27 07:08:53;;;;;;;5.07;4.57;;;;;;;;;;4976221;28;20185;-74
2022/06/27 07:11:21;;;;;;;5.83;4.53;;;;;;;;;;4973138;28;20318;-75
2022/06/27 07:13:48;;;;;;;6.20;5.00;;;;;;;;;;4972685;28;20244;-75
2022/06/27 07:16:15;;;;;;;6.27;5.43;;;;;;;;;;4972348;28;20184;-75
2022/06/27 07:18:43;;;;;;;5.47;4.93;;;;;;;;;;4972674;28;20200;-74
2022/06/27 07:21:11;;;;;;;5.90;4.27;;;;;;;;;;4972266;28;20216;-75
2022/06/27 07:23:38;;;;;;;5.10;4.60;;;;;;;;;;4956823;28;20195;-75
2022/06/27 07:26:06;;;;;;;4.90;4.50;;;;;;;;;;4965186;28;20231;-75
2022/06/27 07:28:32;;;;;;;5.90;4.40;;;;;;;;;;4971703;28;20196;-74
2022/06/27 07:30:59;;;;;;;5.33;4.73;;;;;;;;;;4969323;28;20210;-73
2022/06/27 07:33:25;;;;;;;5.27;4.40;;;;;;;;;;4970099;28;20246;-74
2022/06/27 07:35:52;;;;;;;5.53;5.03;;;;;;;;;;4968963;28;20184;-74
2022/06/27 07:38:18;;;;;;;5.00;4.60;;;;;;;;;;4969306;28;20180;-73
2022/06/27 07:40:44;;;;;;;5.23;4.73;;;;;;;;;;4969767;28;20222;-74
2022/06/27 07:43:13;;;;;;;7.40;5.20;;;;;;;;;;4974133;28;20304;-74
2022/06/27 07:45:41;;;;;;;6.60;5.83;;;;;;;;;;4970337;28;20243;-73
2022/06/27 07:48:08;;;;;;;6.93;5.00;;;;;;;;;;4969779;28;20280;-74
2022/06/27 07:50:37;;;;;;;5.07;4.30;;;;;;;;;;4970203;28;20208;-73
2022/06/27 07:53:17;;;;;;;5.33;4.77;;;;;;;;;;4969480;28;20204;-73
2022/06/27 07:55:46;;;;;;;5.63;4.40;;;;;;;;;;4957006;28;20219;-73
2022/06/27 07:58:16;;;;;;;4.80;4.40;;;;;;;;;;4968686;28;20195;-73
2022/06/27 08:00:44;;;;;;;6.10;4.87;;;;;;;;;;4964939;28;20208;-73
2022/06/27 08:05:56;;;;;;;7.07;5.33;;;;;;;;;;4964817;28;20188;-73
2022/06/27 08:08:23;;;;;;;5.50;4.97;;;;;;;;;;4967364;28;20201;-73
2022/06/27 08:10:50;;;;;;;4.50;4.10;;;;;;;;;;4967291;28;20224;-74
2022/06/27 08:13:16;;;;;;;6.90;5.03;;;;;;;;;;4968902;28;20215;-73
2022/06/27 08:15:44;;;;;;;4.67;4.27;;;;;;;;;;4969706;28;20184;-73
2022/06/27 08:18:10;;;;;;;5.03;4.60;;;;;;;;;;4965479;28;20242;-75
2022/06/27 08:20:38;;;;;;;5.53;5.03;;;;;;;;;;4964925;28;20208;-73
2022/06/27 08:23:04;;;;;;;5.80;5.30;;;;;;;;;;4965352;28;20185;-74
2022/06/27 08:25:30;;;;;;;4.73;4.33;;;;;;;;;;4974882;28;20184;-73
2022/06/27 08:27:57;;;;;;;5.97;5.37;;;;;;;;;;4971799;28;20606;-76
2022/06/27 08:30:25;;;;;;;5.97;5.37;;;;;;;;;;4950225;28;20631;-73
2022/06/27 08:32:56;;;;;;;6.07;5.47;;;;;;;;;;4967775;28;20234;-74
2022/06/27 08:35:24;;;;;;;5.70;5.07;;;;;;;;;;4966457;28;20181;-73
2022/06/27 08:37:54;;;;;;;6.47;5.70;;;;;;;;;;4957281;28;20191;-73
2022/06/27 08:40:21;;;;;;;5.33;4.83;;;;;;;;;;4969844;28;20204;-73
2022/06/27 08:42:47;;;;;;;5.27;4.87;;;;;;;;;;4969860;28;20292;-73
2022/06/27 08:45:23;;;;;;;5.50;5.00;;;;;;;;;;4971334;28;20193;-73
2022/06/27 08:47:54;;;;;;;5.37;4.90;;;;;;;;;;4952669;28;20188;-73
2022/06/27 08:50:22;;;;;;;5.50;5.00;;;;;;;;;;4962915;28;20204;-73
2022/06/27 08:52:50;;;;;;;7.87;5.60;;;;;;;;;;4970928;28;20219;-73
2022/06/27 08:55:18;;;;;;;4.87;4.47;;;;;;;;;;4951937;28;20188;-73
2022/06/27 08:57:45;;;;;;;5.70;4.20;;;;;;;;;;4965142;28;20188;-73
2022/06/27 09:00:12;;;;;;;5.07;4.67;;;;;;;;;;4967915;28;20267;-74
2022/06/27 09:02:42;;;;;;;5.70;5.20;;;;;;;;;;4971445;28;20255;-73
2022/06/27 09:05:30;;;;;;;8.20;5.40;;;;;;;;;;4973434;28;20181;-73
2022/06/27 09:07:57;;;;;;;5.13;4.67;;;;;;;;;;4973011;28;20266;-74
2022/06/27 09:10:27;;;;;;;4.70;4.30;;;;;;;;;;4969974;28;20201;-74
2022/06/27 09:12:58;;;;;;;5.70;4.83;;;;;;;;;;4970626;28;20219;-74
2022/06/27 09:15:48;;;;;;;5.53;5.03;;;;;;;;;;4970996;28;20255;-74
2022/06/27 09:18:16;;;;;;;6.67;5.10;;;;;;;;;;4967313;28;20570;-74
2022/06/27 09:20:55;;;;;;;4.67;4.33;;;;;;;;;;4973264;28;20291;-73
2022/06/27 09:23:47;;;;;;;4.97;4.53;;;;;;;;;;4971660;28;20676;-74
2022/06/27 09:26:15;;;;;;;5.07;4.57;;;;;;;;;;4964818;28;20228;-74
2022/06/27 09:28:53;;;;;;;5.63;4.23;;;;;;;;;;4972124;28;20221;-74
2022/06/27 09:31:28;;;;;;;4.60;4.30;;;;;;;;;;4974703;28;20218;-74
2022/06/27 09:34:09;;;;;;;5.20;4.70;;;;;;;;;;4969923;28;20212;-74
2022/06/27 09:36:37;;;;;;;4.20;3.87;;;;;;;;;;4968111;28;20645;-74
2022/06/27 09:39:04;;;;;;;5.27;4.77;;;;;;;;;;4972191;28;20185;-74
2022/06/27 09:41:31;;;;;;;4.80;4.40;;;;;;;;;;4951615;28;20206;-74
2022/06/27 09:44:10;;;;;;;5.70;5.20;;;;;;;;;;4967348;28;20260;-75
2022/06/27 09:46:38;;;;;;;5.00;4.60;;;;;;;;;;4971374;28;20204;-75
2022/06/27 09:49:07;;;;;;;5.90;4.90;;;;;;;;;;4972760;28;20186;-75
2022/06/27 09:51:37;;;;;;;5.73;4.93;;;;;;;;;;4973066;28;20279;-75
2022/06/27 09:54:09;;;;;;;5.47;4.90;;;;;;;;;;4969172;28;20366;-74
2022/06/27 09:56:37;;;;;;;5.03;4.63;;;;;;;;;;4973344;28;20715;-74
2022/06/27 09:59:04;;;;;;;4.93;4.27;;;;;;;;;;4955801;28;20956;-75
2022/06/27 10:01:30;;;;;;;4.60;4.20;;;;;;;;;;4974020;28;20292;-75
2022/06/27 10:03:57;;;;;;;5.77;4.20;;;;;;;;;;4972387;28;20216;-71
2022/06/27 10:06:25;;;;;;;5.07;4.47;;;;;;;;;;4972628;28;20181;-70
2022/06/27 10:08:51;;;;;;;6.47;4.80;;;;;;;;;;4980975;28;20212;-71
2022/06/27 10:11:18;;;;;;;5.57;4.53;;;;;;;;;;4980348;28;20217;-70
2022/06/27 10:14:04;;;;;;;4.67;4.30;;;;;;;;;;4955178;28;20212;-70
2022/06/27 10:16:31;;;;;;;4.97;4.20;;;;;;;;;;4970815;28;20285;-73
2022/06/27 10:18:57;;;;;;;4.83;4.43;;;;;;;;;;4972820;28;20219;-73
2022/06/27 10:21:28;;;;;;;5.20;4.43;;;;;;;;;;4974009;28;20231;-73
2022/06/27 10:24:13;;;;;;;5.47;4.70;;;;;;;;;;4968301;28;20196;-74
2022/06/27 10:26:41;;;;;;;3.83;3.40;;;;;;;;;;4971657;28;20190;-74
2022/06/27 10:29:25;;;;;;;3.93;3.60;;;;;;;;;;4969880;28;20308;-74
2022/06/27 10:31:52;;;;;;;3.93;3.40;;;;;;;;;;4980525;28;20266;-73
2022/06/27 10:34:18;;;;;;;5.00;3.10;;;;;;;;;;4972855;28;20220;-74
2022/06/27 10:36:44;;;;;;;4.47;3.00;;;;;;;;;;4973182;28;20188;-73
2022/06/27 10:39:19;;;;;;;3.33;2.97;;;;;;;;;;4976372;28;20172;-73
2022/06/27 10:41:45;;;;;;;3.83;3.10;;;;;;;;;;4975572;28;20293;-73
2022/06/27 10:44:31;;;;;;;3.30;3.00;;;;;;;;;;4969375;28;20197;-74
2022/06/27 10:46:57;;;;;;;3.70;3.40;;;;;;;;;;4972436;28;20224;-73
2022/06/27 10:49:24;;;;;;;3.73;3.23;;;;;;;;;;4968191;28;20280;-74
2022/06/27 10:51:51;;;;;;;5.03;3.80;;;;;;;;;;4970543;28;20205;-73
2022/06/27 10:54:17;;;;;;;5.03;3.50;;;;;;;;;;4968611;28;20685;-73
2022/06/27 10:56:55;;;;;;;4.63;3.90;;;;;;;;;;4948938;28;20193;-72
2022/06/27 10:59:21;;;;;;;4.60;4.20;;;;;;;;;;4967318;28;20196;-73
2022/06/27 11:01:50;;;;;;;4.43;4.13;;;;;;;;;;4968829;28;20897;-72
2022/06/27 11:04:29;;;;;;;4.83;4.43;;;;;;;;;;4970194;28;20200;-73
2022/06/27 11:06:56;;;;;;;4.60;4.20;;;;;;;;;;4952920;28;20196;-73
2022/06/27 11:09:35;;;;;;;4.50;4.10;;;;;;;;;;4970679;28;20180;-75
2022/06/27 11:12:01;;;;;;;4.43;3.60;;;;;;;;;;4969343;28;21002;-72
2022/06/27 11:14:27;;;;;;;4.10;3.80;;;;;;;;;;4957986;28;20185;-74
2022/06/27 11:16:54;;;;;;;7.10;3.30;;;;;;;;;;4959613;28;20196;-75
2022/06/27 11:22:21;;;;;;;4.87;3.50;;;;;;;;;;4970742;28;20189;-74
2022/06/27 11:24:49;;;;;;;4.90;3.57;;;;;;;;;;4966889;28;20180;-75
2022/06/27 11:27:16;;;;;;;3.60;3.30;;;;;;;;;;4969220;28;22007;-74
2022/06/27 11:32:34;;;;;;;3.30;3.00;;;;;;;;;;4968166;28;20223;-74
2022/06/27 11:35:01;;;;;;;3.53;3.23;;;;;;;;;;4968703;28;20664;-74
2022/06/27 11:37:30;;;;;;;3.70;2.90;;;;;;;;;;4970750;28;20185;-75
2022/06/27 11:39:58;;;;;;;4.07;3.30;;;;;;;;;;4970803;28;20612;-74
2022/06/27 11:42:30;;;;;;;3.50;3.20;;;;;;;;;;4971616;28;20188;-74
2022/06/27 11:45:02;;;;;;;3.83;3.50;;;;;;;;;;4969242;28;20196;-74
2022/06/27 11:47:29;;;;;;;3.97;3.50;;;;;;;;;;4950768;28;20247;-74
2022/06/27 11:50:06;;;;;;;3.20;2.90;;;;;;;;;;4970750;28;20220;-74
2022/06/27 11:52:36;;;;;;;3.90;3.60;;;;;;;;;;4970297;28;20212;-74
2022/06/27 11:55:07;;;;;;;3.80;3.37;;;;;;;;;;4971089;28;20180;-74
2022/06/27 11:57:34;;;;;;;3.73;3.43;;;;;;;;;;4970737;28;20204;-75
2022/06/27 12:00:01;;;;;;;4.30;3.70;;;;;;;;;;4972394;28;20263;-74
2022/06/27 12:02:35;;;;;;;3.80;3.50;;;;;;;;;;4972084;28;20200;-74
2022/06/27 12:05:02;;;;;;;4.30;3.20;;;;;;;;;;4963083;28;20192;-75
2022/06/27 12:07:28;;;;;;;3.53;3.23;;;;;;;;;;4968993;28;20242;-73
2022/06/27 12:09:54;;;;;;;3.93;3.53;;;;;;;;;;4968324;28;21051;-73
2022/06/27 12:12:25;;;;;;;3.10;2.90;;;;;;;;;;4968924;28;20192;-74
2022/06/27 12:14:53;;;;;;;3.83;3.20;;;;;;;;;;4952877;28;20192;-73
2022/06/27 12:17:20;;;;;;;4.30;3.10;;;;;;;;;;4969537;28;20271;-73
2022/06/27 12:19:46;;;;;;;3.50;3.20;;;;;;;;;;4972063;28;20181;-76
2022/06/27 12:22:18;;;;;;;4.17;3.07;;;;;;;;;;4970989;28;20177;-72
2022/06/27 12:24:45;;;;;;;3.70;3.40;;;;;;;;;;4967846;28;20181;-77
2022/06/27 12:27:11;;;;;;;4.27;3.70;;;;;;;;;;4965003;28;20248;-74
2022/06/27 12:29:38;;;;;;;3.70;3.20;;;;;;;;;;4971108;28;20200;-72
2022/06/27 12:32:04;;;;;;;3.40;3.10;;;;;;;;;;4970777;28;20239;-72
2022/06/27 12:34:32;;;;;;;3.00;2.70;;;;;;;;;;4971393;28;20202;-71
2022/06/27 12:36:58;;;;;;;2.70;2.50;;;;;;;;;;4971510;28;20187;-73
2022/06/27 12:39:24;;;;;;;3.33;2.20;;;;;;;;;;4974166;28;20192;-73
2022/06/27 12:41:50;;;;;;;2.40;2.20;;;;;;;;;;4974775;28;20215;-72
2022/06/27 12:44:17;;;;;;;2.20;2.00;;;;;;;;;;4975422;28;20366;-72
2022/06/27 12:46:43;;;;;;;2.20;1.93;;;;;;;;;;4975065;28;20507;-72
2022/06/27 12:49:09;;;;;;;2.17;2.03;;;;;;;;;;4974088;28;20552;-72
2022/06/27 12:51:35;;;;;;;2.60;2.40;;;;;;;;;;4974084;28;20217;-72
2022/06/27 12:54:02;;;;;;;2.50;2.30;;;;;;;;;;4974415;28;20229;-75
2022/06/27 12:56:28;;;;;;;4.80;2.90;;;;;;;;;;4973109;28;20181;-72
2022/06/27 12:58:54;;;;;;;3.20;2.90;;;;;;;;;;4974622;28;20187;-75
2022/06/27 13:01:21;;;;;;;3.10;2.80;;;;;;;;;;4974186;28;20207;-72
2022/06/27 13:03:47;;;;;;;3.33;2.20;;;;;;;;;;4954504;28;20621;-76
2022/06/27 13:06:13;;;;;;;3.80;2.20;;;;;;;;;;4971135;28;20276;-72
2022/06/27 13:08:40;;;;;;;2.30;2.10;;;;;;;;;;4972795;28;20212;-72
2022/06/27 13:11:06;;;;;;;2.50;2.30;;;;;;;;;;4974076;28;20220;-72
2022/06/27 13:13:32;;;;;;;4.37;2.50;;;;;;;;;;4973248;28;20208;-72
2022/06/27 13:15:58;;;;;;;2.80;2.13;;;;;;;;;;4969940;28;22138;-75
2022/06/27 13:18:25;;;;;;;2.77;1.83;;;;;;;;;;4969078;28;20184;-74
2022/06/27 13:20:51;;;;;;;1.93;1.83;;;;;;;;;;4968910;28;20204;-73
2022/06/27 13:23:17;;;;;;;3.03;2.10;;;;;;;;;;4976193;28;20548;-74
2022/06/27 13:25:44;;;;;;;4.73;2.30;;;;;;;;;;4952581;28;20193;-73
2022/06/27 13:28:11;;;;;;;2.87;2.37;;;;;;;;;;4973212;28;20560;-74
2022/06/27 13:30:37;;;;;;;3.87;2.57;;;;;;;;;;4972840;28;20548;-76
2022/06/27 13:33:03;;;;;;;5.07;2.70;;;;;;;;;;4970427;28;20235;-77
2022/06/27 13:35:30;;;;;;;4.67;3.20;;;;;;;;;;4954857;28;20698;-76
2022/06/27 13:37:57;;;;;;;3.57;3.23;;;;;;;;;;4970447;28;20231;-75
2022/06/27 13:40:27;;;;;;;3.13;2.70;;;;;;;;;;4970295;28;20204;-74
2022/06/27 13:42:53;;;;;;;3.90;2.90;;;;;;;;;;4950388;28;20865;-77
2022/06/27 13:45:20;;;;;;;4.00;2.90;;;;;;;;;;4953466;28;20200;-74
2022/06/27 13:47:46;;;;;;;4.47;3.00;;;;;;;;;;4969203;28;20193;-75
2022/06/27 13:50:12;;;;;;;4.13;3.10;;;;;;;;;;4968451;28;20212;-74
2022/06/27 13:52:39;;;;;;;4.97;2.87;;;;;;;;;;4971209;28;20213;-73
2022/06/27 13:55:06;;;;;;;3.40;2.40;;;;;;;;;;4971159;28;20179;-77
2022/06/27 13:57:32;;;;;;;2.30;2.10;;;;;;;;;;4970041;28;20239;-75
2022/06/27 13:59:59;;;;;;;2.83;2.20;;;;;;;;;;4966374;28;20302;-75
2022/06/27 14:02:25;;;;;;;7.03;2.50;;;;;;;;;;4967770;28;20186;-74
2022/06/27 14:04:51;;;;;;;2.50;2.30;;;;;;;;;;4955745;28;20707;-73
2022/06/27 14:07:37;;;;;;;3.73;2.33;;;;;;;;;;4965441;28;20561;-76
2022/06/27 14:10:04;;;;;;;2.30;2.10;;;;;;;;;;4966263;28;20192;-75
2022/06/27 14:12:30;;;;;;;5.07;2.33;;;;;;;;;;4969891;28;20692;-74
2022/06/27 14:14:56;;;;;;;2.50;2.30;;;;;;;;;;4967392;28;20743;-74
2022/06/27 14:17:22;;;;;;;2.70;2.20;;;;;;;;;;4969731;28;20213;-77
2022/06/27 14:19:49;;;;;;;3.40;2.20;;;;;;;;;;4969083;28;20186;-75
2022/06/27 14:22:15;;;;;;;3.53;2.30;;;;;;;;;;4967708;28;20275;-75
2022/06/27 14:24:42;;;;;;;4.37;2.50;;;;;;;;;;4970353;28;20183;-75
2022/06/27 14:27:09;;;;;;;2.73;2.30;;;;;;;;;;4971551;28;20235;-74
2022/06/27 14:29:35;;;;;;;2.47;2.20;;;;;;;;;;4969343;28;20189;-75
2022/06/27 14:32:01;;;;;;;2.93;2.20;;;;;;;;;;4968891;28;20928;-74
2022/06/27 14:34:27;;;;;;;2.43;2.10;;;;;;;;;;4969263;28;20299;-74
2022/06/27 14:36:54;;;;;;;3.37;2.40;;;;;;;;;;4967361;28;20204;-74
2022/06/27 14:39:23;;;;;;;2.97;2.60;;;;;;;;;;4968337;28;20208;-74
2022/06/27 14:41:50;;;;;;;2.50;2.30;;;;;;;;;;4970223;28;20196;-74
2022/06/27 14:44:18;;;;;;;2.60;2.40;;;;;;;;;;4968066;28;20223;-75
2022/06/27 14:46:44;;;;;;;2.40;2.20;;;;;;;;;;4953660;28;20251;-73
2022/06/27 14:49:11;;;;;;;2.67;2.47;;;;;;;;;;4969502;28;20195;-73
2022/06/27 14:51:37;;;;;;;2.77;2.33;;;;;;;;;;4968898;28;20208;-75
2022/06/27 14:54:03;;;;;;;2.50;2.30;;;;;;;;;;4971054;28;20208;-77
2022/06/27 14:56:30;;;;;;;2.27;2.07;;;;;;;;;;4972692;28;20571;-76
2022/06/27 14:58:56;;;;;;;3.33;2.20;;;;;;;;;;4965273;28;20192;-75
2022/06/27 15:01:22;;;;;;;3.30;2.20;;;;;;;;;;4965682;28;20231;-78